Time;durP1;ratioP1;P1;durP2;ratioP2;P2;SDS_P1;SDS_P2;PMS_P1;PMS_P2;Temp;Humidity;BMP_temperature;BMP_pressure;BME280_temperature;BME280_humidity;BME280_pressure;Samples;Min_cycle;Max_cycle;Signal;HPM_P1;HPM_P2
2022/03/05 00:00:37;;;;;;;13.02;9.10;;;-1.40;90.80;;;;;;5008425;28;20203;-76
2022/03/05 00:03:04;;;;;;;13.20;9.27;;;-1.50;90.90;;;;;;5008496;28;20213;-76
2022/03/05 00:05:31;;;;;;;15.45;9.10;;;-1.50;90.90;;;;;;5007182;28;20226;-76
2022/03/05 00:07:58;;;;;;;13.60;8.43;;;-1.60;91.00;;;;;;5007480;28;20210;-76
2022/03/05 00:10:27;;;;;;;12.85;9.32;;;-1.60;91.10;;;;;;5013279;28;20211;-76
2022/03/05 00:12:55;;;;;;;13.60;9.32;;;-1.60;91.30;;;;;;5022300;28;20210;-76
2022/03/05 00:15:23;;;;;;;13.20;9.30;;;-1.60;91.30;;;;;;5023634;28;20222;-76
2022/03/05 00:17:51;;;;;;;10.95;7.82;;;-1.60;91.80;;;;;;5028093;28;20195;-76
2022/03/05 00:20:19;;;;;;;13.48;7.57;;;-1.70;91.50;;;;;;5024128;28;20199;-76
2022/03/05 00:22:47;;;;;;;13.20;8.55;;;-1.70;91.40;;;;;;5011491;28;20225;-76
2022/03/05 00:25:15;;;;;;;12.00;8.20;;;-1.70;91.60;;;;;;5008131;28;20396;-75
2022/03/05 00:27:44;;;;;;;14.48;9.20;;;-1.70;91.70;;;;;;5007492;28;20207;-75
2022/03/05 00:30:12;;;;;;;12.02;8.85;;;-1.70;91.70;;;;;;5008099;28;20214;-76
2022/03/05 00:32:40;;;;;;;12.65;9.35;;;-1.70;91.70;;;;;;5008116;28;20211;-76
2022/03/05 00:35:08;;;;;;;10.45;8.00;;;-1.70;91.80;;;;;;5007668;28;20271;-76
2022/03/05 00:37:36;;;;;;;11.98;9.95;;;-1.80;92.00;;;;;;5007427;28;20206;-76
2022/03/05 00:40:03;;;;;;;12.77;9.90;;;-1.80;91.90;;;;;;5007737;28;20291;-76
2022/03/05 00:42:30;;;;;;;12.25;9.32;;;-1.80;92.00;;;;;;5007305;28;20213;-76
2022/03/05 00:44:58;;;;;;;10.75;8.68;;;-1.80;92.00;;;;;;5007273;28;20309;-76
2022/03/05 00:47:25;;;;;;;14.52;8.75;;;-1.80;91.90;;;;;;5007177;28;20230;-76
2022/03/05 00:49:53;;;;;;;13.60;9.10;;;-1.90;91.80;;;;;;5007460;28;20211;-76
2022/03/05 00:52:20;;;;;;;15.35;9.07;;;-1.90;91.90;;;;;;5007510;28;20555;-76
2022/03/05 00:54:46;;;;;;;13.90;8.75;;;-1.90;91.80;;;;;;5007643;28;20296;-76
2022/03/05 00:57:13;;;;;;;10.80;7.78;;;-1.90;92.10;;;;;;5007037;28;20210;-76
2022/03/05 00:59:41;;;;;;;13.15;9.13;;;-2.00;91.90;;;;;;5008145;28;20210;-76
2022/03/05 01:02:09;;;;;;;10.93;8.35;;;-2.00;91.90;;;;;;5006972;28;20206;-76
2022/03/05 01:04:36;;;;;;;10.80;8.60;;;-2.10;91.90;;;;;;5007228;28;20234;-77
2022/03/05 01:07:03;;;;;;;13.60;8.15;;;-2.10;92.10;;;;;;5006994;28;20222;-76
2022/03/05 01:09:30;;;;;;;10.80;7.93;;;-2.10;92.20;;;;;;5007195;28;20211;-76
2022/03/05 01:11:56;;;;;;;14.10;8.50;;;-2.10;92.30;;;;;;5007198;28;20206;-76
2022/03/05 01:14:23;;;;;;;11.25;7.97;;;-2.20;92.90;;;;;;5007013;28;20222;-76
2022/03/05 01:16:50;;;;;;;15.18;8.95;;;-2.20;92.70;;;;;;5006730;28;20248;-76
2022/03/05 01:19:18;;;;;;;14.50;8.88;;;-2.20;92.60;;;;;;5006852;28;20210;-76
2022/03/05 01:21:45;;;;;;;10.85;7.63;;;-2.20;92.60;;;;;;5007247;28;20209;-76
2022/03/05 01:24:12;;;;;;;11.95;7.68;;;-2.30;92.70;;;;;;5007673;28;20226;-77
2022/03/05 01:26:38;;;;;;;13.57;8.85;;;-2.20;92.70;;;;;;5006954;28;20229;-76
2022/03/05 01:29:05;;;;;;;11.55;8.32;;;-2.20;92.80;;;;;;5007112;28;20202;-76
2022/03/05 01:31:32;;;;;;;11.82;9.20;;;-2.20;92.80;;;;;;5007194;28;20217;-76
2022/03/05 01:33:59;;;;;;;11.05;7.40;;;-2.20;92.70;;;;;;5006954;28;20230;-76
2022/03/05 01:36:27;;;;;;;15.38;8.55;;;-2.20;92.80;;;;;;5007089;28;20198;-76
2022/03/05 01:38:54;;;;;;;13.55;7.95;;;-2.30;92.80;;;;;;5007194;28;20199;-77
2022/03/05 01:41:20;;;;;;;13.45;8.30;;;-2.30;92.70;;;;;;5007510;28;20229;-78
2022/03/05 01:43:50;;;;;;;11.43;8.00;;;-2.30;92.80;;;;;;5008267;28;20218;-77
2022/03/05 01:46:28;;;;;;;14.35;8.57;;;-2.30;93.10;;;;;;5008099;28;20219;-76
2022/03/05 01:48:55;;;;;;;11.68;8.60;;;-2.30;93.30;;;;;;5008204;28;20209;-77
2022/03/05 01:51:22;;;;;;;14.18;8.48;;;-2.30;92.90;;;;;;5008184;28;20210;-77
2022/03/05 01:53:50;;;;;;;11.52;8.23;;;-2.40;93.00;;;;;;5008443;28;20321;-76
2022/03/05 01:56:18;;;;;;;13.50;8.75;;;-2.30;93.00;;;;;;5008076;28;20569;-77
2022/03/05 01:58:45;;;;;;;14.35;8.30;;;-2.40;92.90;;;;;;5007480;28;20722;-77
2022/03/05 02:01:11;;;;;;;12.00;8.20;;;-2.40;93.20;;;;;;5008420;28;20697;-77
2022/03/05 02:03:39;;;;;;;12.65;7.57;;;-2.40;93.10;;;;;;5008336;28;20237;-77
2022/03/05 02:06:06;;;;;;;15.63;9.23;;;-2.40;93.30;;;;;;5008348;28;20267;-77
2022/03/05 02:08:33;;;;;;;13.63;8.32;;;-2.50;93.20;;;;;;5007591;28;20297;-77
2022/03/05 02:11:01;;;;;;;10.73;8.60;;;-2.50;93.20;;;;;;5008192;28;20209;-77
2022/03/05 02:13:28;;;;;;;13.75;8.30;;;-2.60;93.20;;;;;;5009549;28;20245;-77
2022/03/05 02:15:55;;;;;;;12.32;8.32;;;-2.60;93.30;;;;;;5011890;28;20553;-76
2022/03/05 02:18:23;;;;;;;9.85;7.18;;;-2.60;93.50;;;;;;5010937;28;20209;-75
2022/03/05 02:20:51;;;;;;;13.27;7.45;;;-2.70;93.60;;;;;;5011215;28;20214;-76
2022/03/05 02:23:18;;;;;;;12.57;8.48;;;-2.70;93.60;;;;;;5011032;28;20209;-76
2022/03/05 02:25:53;;;;;;;12.63;7.32;;;-2.70;94.00;;;;;;5011444;28;20199;-76
2022/03/05 02:28:21;;;;;;;13.32;7.35;;;-2.70;93.70;;;;;;5010600;28;20211;-76
2022/03/05 02:30:48;;;;;;;11.75;7.60;;;-2.80;93.90;;;;;;5011385;28;20202;-77
2022/03/05 02:33:15;;;;;;;9.35;7.13;;;-2.80;93.90;;;;;;5010662;28;20206;-77
2022/03/05 02:35:43;;;;;;;11.60;7.60;;;-2.80;94.10;;;;;;5010786;28;20211;-76
2022/03/05 02:38:12;;;;;;;11.80;8.10;;;-2.80;94.10;;;;;;5010233;28;20225;-76
2022/03/05 02:40:39;;;;;;;12.30;7.80;;;-2.90;94.30;;;;;;5010473;28;20207;-76
2022/03/05 02:43:06;;;;;;;10.45;7.03;;;-2.90;94.30;;;;;;5010844;28;20241;-76
2022/03/05 02:45:33;;;;;;;12.20;7.80;;;-2.90;94.30;;;;;;5010134;28;20230;-76
2022/03/05 02:48:03;;;;;;;10.15;6.80;;;-2.90;94.30;;;;;;5010120;28;20222;-76
2022/03/05 02:50:30;;;;;;;16.38;7.82;;;-2.90;94.50;;;;;;5010302;28;20198;-76
2022/03/05 02:52:57;;;;;;;13.15;8.02;;;-3.00;94.90;;;;;;5010566;28;20202;-76
2022/03/05 02:55:25;;;;;;;9.63;6.75;;;-3.00;94.60;;;;;;5010181;28;20223;-76
2022/03/05 02:57:52;;;;;;;14.07;7.57;;;-2.90;94.50;;;;;;5009650;28;20669;-78
2022/03/05 03:00:19;;;;;;;8.57;6.75;;;-2.90;94.50;;;;;;5010510;28;20210;-76
2022/03/05 03:02:46;;;;;;;10.55;6.63;;;-2.90;94.50;;;;;;5010738;28;20278;-77
2022/03/05 03:05:14;;;;;;;11.68;7.50;;;-3.00;94.60;;;;;;5010544;28;20228;-77
2022/03/05 03:07:41;;;;;;;9.80;7.30;;;-3.00;94.70;;;;;;5010306;28;20231;-76
2022/03/05 03:10:10;;;;;;;10.68;6.88;;;-3.10;94.90;;;;;;5010559;28;20202;-76
2022/03/05 03:12:39;;;;;;;11.40;7.38;;;-3.10;94.90;;;;;;5010254;28;20236;-76
2022/03/05 03:15:08;;;;;;;11.90;7.25;;;-3.10;94.90;;;;;;5010518;28;20226;-77
2022/03/05 03:17:41;;;;;;;10.07;6.80;;;-3.10;94.80;;;;;;5009596;28;20201;-77
2022/03/05 03:20:08;;;;;;;9.80;6.90;;;-3.20;95.10;;;;;;5009879;28;20213;-76
2022/03/05 03:22:35;;;;;;;10.23;7.28;;;-3.20;95.20;;;;;;5010055;28;20574;-77
2022/03/05 03:25:03;;;;;;;12.43;7.30;;;-3.20;95.40;;;;;;5009813;28;20315;-77
2022/03/05 03:27:29;;;;;;;9.88;6.25;;;-3.20;95.40;;;;;;5008995;28;20229;-76
2022/03/05 03:29:57;;;;;;;9.73;6.93;;;-3.20;95.30;;;;;;5010084;28;20232;-77
2022/03/05 03:32:25;;;;;;;10.63;6.85;;;-3.20;95.20;;;;;;5009586;28;20211;-77
2022/03/05 03:34:51;;;;;;;9.65;6.53;;;-3.20;95.30;;;;;;5010057;28;20234;-77
2022/03/05 03:37:19;;;;;;;10.68;7.30;;;-3.20;95.60;;;;;;5009332;28;20205;-77
2022/03/05 03:39:46;;;;;;;13.15;7.47;;;-3.20;95.50;;;;;;5009843;28;20583;-77
2022/03/05 03:42:13;;;;;;;7.82;6.68;;;-3.20;95.40;;;;;;5009713;28;20234;-77
2022/03/05 03:44:40;;;;;;;11.27;6.78;;;-3.20;95.60;;;;;;5009423;28;20227;-76
2022/03/05 03:47:08;;;;;;;10.90;7.68;;;-3.20;95.60;;;;;;5009235;28;20223;-77
2022/03/05 03:49:35;;;;;;;12.23;7.10;;;-3.30;95.80;;;;;;5009835;28;20213;-77
2022/03/05 03:52:02;;;;;;;11.27;6.90;;;-3.30;95.80;;;;;;5010316;28;20202;-78
2022/03/05 03:54:29;;;;;;;13.25;7.65;;;-3.30;95.90;;;;;;5010641;28;20237;-77
2022/03/05 03:56:55;;;;;;;10.38;7.25;;;-3.40;95.90;;;;;;5014621;28;20221;-76
2022/03/05 03:59:22;;;;;;;11.15;7.20;;;-3.40;96.00;;;;;;5025069;28;20236;-76
2022/03/05 04:01:49;;;;;;;12.75;7.07;;;-3.40;96.00;;;;;;5024512;28;20218;-76
2022/03/05 04:04:17;;;;;;;13.63;6.88;;;-3.40;96.00;;;;;;5022059;28;20705;-76
2022/03/05 04:09:28;;;;;;;11.70;7.55;;;-3.50;96.20;;;;;;5015746;28;20201;-77
2022/03/05 04:11:54;;;;;;;11.25;6.75;;;-3.50;96.20;;;;;;5015344;28;20210;-77
2022/03/05 04:14:21;;;;;;;10.93;7.13;;;-3.50;96.20;;;;;;5015307;28;20318;-77
2022/03/05 04:16:48;;;;;;;14.23;7.15;;;-3.50;96.30;;;;;;5011115;28;20219;-76
2022/03/05 04:19:15;;;;;;;12.95;6.55;;;-3.50;96.30;;;;;;5010398;28;20205;-76
2022/03/05 04:21:43;;;;;;;11.50;7.72;;;-3.50;96.30;;;;;;5010180;28;20203;-77
2022/03/05 04:24:09;;;;;;;11.02;6.70;;;-3.50;96.30;;;;;;5009574;28;20234;-76
2022/03/05 04:26:36;;;;;;;10.23;6.22;;;-3.50;96.30;;;;;;5008911;28;20226;-76
2022/03/05 04:29:03;;;;;;;10.65;7.20;;;-3.60;96.50;;;;;;5009569;28;20584;-77
2022/03/05 04:31:30;;;;;;;7.43;6.07;;;-3.60;96.70;;;;;;5008989;28;20213;-77
2022/03/05 04:33:56;;;;;;;11.68;6.45;;;-3.60;96.50;;;;;;5009302;28;20223;-76
2022/03/05 04:36:23;;;;;;;12.20;6.53;;;-3.70;96.60;;;;;;5008314;28;20213;-76
2022/03/05 04:38:51;;;;;;;10.75;7.97;;;-3.70;96.80;;;;;;5008867;28;20209;-77
2022/03/05 04:41:19;;;;;;;9.73;6.78;;;-3.70;97.00;;;;;;5009490;28;20203;-77
2022/03/05 04:43:45;;;;;;;10.73;7.05;;;-3.70;97.10;;;;;;5009298;28;20229;-77
2022/03/05 04:46:12;;;;;;;9.35;6.68;;;-3.80;97.20;;;;;;5009654;28;20206;-76
2022/03/05 04:48:39;;;;;;;9.25;6.82;;;-3.80;97.10;;;;;;5009744;28;20286;-77
2022/03/05 04:51:06;;;;;;;11.07;7.30;;;-3.80;97.20;;;;;;5009538;28;20238;-77
2022/03/05 04:53:33;;;;;;;11.77;7.40;;;-3.80;97.10;;;;;;5009352;28;20222;-77
2022/03/05 04:56:01;;;;;;;11.15;6.97;;;-3.70;97.10;;;;;;5021061;23;20231;-88
2022/03/05 04:58:28;;;;;;;13.43;7.38;;;-3.70;97.10;;;;;;4990842;28;20203;-88
2022/03/05 05:00:54;;;;;;;14.45;7.32;;;-3.70;97.00;;;;;;4991729;28;20218;-88
2022/03/05 05:03:21;;;;;;;12.60;8.23;;;-3.80;97.10;;;;;;4991586;28;20225;-88
2022/03/05 05:05:48;;;;;;;13.32;7.68;;;-3.80;97.00;;;;;;5038798;28;20629;-88
2022/03/05 05:08:16;;;;;;;9.38;6.80;;;-3.80;97.00;;;;;;5093293;28;20323;-88
2022/03/05 05:10:42;;;;;;;9.50;6.55;;;-3.80;97.30;;;;;;5093543;28;20630;-88
2022/03/05 05:13:11;;;;;;;8.45;6.65;;;-3.80;97.40;;;;;;5093483;28;20241;-87
2022/03/05 05:15:38;;;;;;;11.90;7.68;;;-3.80;97.40;;;;;;5093719;28;20219;-87
2022/03/05 05:18:05;;;;;;;11.48;7.13;;;-3.80;97.60;;;;;;5093615;28;20556;-90
2022/03/05 05:20:32;;;;;;;11.30;6.82;;;-3.80;97.70;;;;;;5093324;28;20192;-89
2022/03/05 05:22:59;;;;;;;11.95;7.13;;;-3.90;97.60;;;;;;5094051;28;20558;-89
2022/03/05 05:25:26;;;;;;;12.85;7.78;;;-3.90;97.60;;;;;;5093755;28;20219;-90
2022/03/05 05:27:52;;;;;;;12.82;7.45;;;-3.90;97.70;;;;;;5093983;28;20727;-90
2022/03/05 05:30:20;;;;;;;11.57;7.60;;;-3.90;97.70;;;;;;5094360;28;20207;-88
2022/03/05 05:32:47;;;;;;;11.63;6.93;;;-3.90;97.70;;;;;;5094699;28;20203;-90
2022/03/05 05:35:14;;;;;;;13.85;8.25;;;-3.90;97.80;;;;;;5094131;28;20224;-89
2022/03/05 05:37:41;;;;;;;14.52;7.50;;;-3.90;97.90;;;;;;5094625;28;20243;-89
2022/03/05 05:40:09;;;;;;;10.32;6.68;;;-3.90;98.00;;;;;;5093968;28;20206;-89
2022/03/05 05:42:36;;;;;;;15.75;8.20;;;-3.90;98.10;;;;;;5093834;28;20204;-89
2022/03/05 05:45:03;;;;;;;16.75;7.97;;;-3.90;98.00;;;;;;5094246;28;20220;-89
2022/03/05 05:47:31;;;;;;;12.88;7.90;;;-3.90;98.20;;;;;;5096152;28;20612;-89
2022/03/05 05:49:58;;;;;;;12.48;8.50;;;-3.90;98.10;;;;;;5097620;28;20207;-88
2022/03/05 05:52:25;;;;;;;12.75;7.47;;;-3.90;98.00;;;;;;5097516;28;20211;-88
2022/03/05 05:54:51;;;;;;;18.27;8.20;;;-3.90;98.10;;;;;;5097520;28;20211;-88
2022/03/05 05:57:18;;;;;;;11.90;7.35;;;-3.90;98.20;;;;;;5097997;28;20252;-88
2022/03/05 05:59:45;;;;;;;15.40;8.75;;;-3.90;98.30;;;;;;5097649;28;20693;-89
2022/03/05 06:02:11;;;;;;;12.20;7.03;;;-4.00;98.40;;;;;;5097673;28;20618;-89
2022/03/05 06:04:39;;;;;;;13.25;7.88;;;-4.00;98.30;;;;;;5097304;28;20196;-88
2022/03/05 06:07:06;;;;;;;13.30;7.80;;;-4.00;98.30;;;;;;5096954;28;20219;-88
2022/03/05 06:09:33;;;;;;;14.15;8.05;;;-4.00;98.40;;;;;;5096925;28;20200;-87
2022/03/05 06:11:59;;;;;;;12.90;8.40;;;-4.00;98.70;;;;;;5097289;28;20196;-88
2022/03/05 06:14:26;;;;;;;12.98;8.02;;;-4.00;98.70;;;;;;5097173;28;20231;-88
2022/03/05 06:16:53;;;;;;;14.35;7.70;;;-3.90;98.70;;;;;;5096832;28;20219;-88
2022/03/05 06:19:20;;;;;;;12.68;7.72;;;-3.90;98.50;;;;;;5096868;28;20188;-88
2022/03/05 06:21:48;;;;;;;14.88;7.47;;;-3.90;98.60;;;;;;5097075;28;20204;-88
2022/03/05 06:24:15;;;;;;;16.33;7.82;;;-3.90;98.90;;;;;;5096870;28;20208;-88
2022/03/05 06:26:41;;;;;;;12.02;8.05;;;-4.00;99.00;;;;;;5096595;28;20203;-88
2022/03/05 06:29:08;;;;;;;13.52;7.75;;;-3.90;99.00;;;;;;5096834;28;20227;-89
2022/03/05 06:31:35;;;;;;;10.57;7.55;;;-3.90;99.00;;;;;;5097472;28;20641;-90
2022/03/05 06:34:12;;;;;;;12.80;8.07;;;-3.80;99.10;;;;;;5097620;28;20200;-90
2022/03/05 06:36:51;;;;;;;11.90;8.13;;;-3.80;99.90;;;;;;5097285;28;20219;-90
2022/03/05 06:39:19;;;;;;;13.00;7.95;;;-3.60;99.90;;;;;;5098097;28;20334;-91
2022/03/05 06:41:46;;;;;;;11.70;8.10;;;-3.60;99.90;;;;;;5097007;28;20196;-90
2022/03/05 06:44:13;;;;;;;14.43;7.97;;;-3.50;99.60;;;;;;5096954;28;20199;-90
2022/03/05 06:46:40;;;;;;;18.02;9.48;;;-3.50;99.50;;;;;;5096655;28;20239;-90
2022/03/05 06:49:06;;;;;;;13.23;7.50;;;-3.40;99.40;;;;;;5096067;28;20226;-90
2022/03/05 06:51:33;;;;;;;14.82;10.60;;;-3.30;99.30;;;;;;5095280;28;20452;-89
2022/03/05 06:54:00;;;;;;;15.23;8.68;;;-3.30;99.20;;;;;;5096139;28;20200;-90
2022/03/05 06:56:28;;;;;;;12.95;8.70;;;-3.20;99.20;;;;;;5096159;28;20688;-89
2022/03/05 06:58:55;;;;;;;11.73;8.52;;;-3.00;99.10;;;;;;5094579;28;20211;-90
2022/03/05 07:01:22;;;;;;;16.25;9.20;;;-3.00;99.20;;;;;;5095861;28;20211;-90
2022/03/05 07:03:48;;;;;;;15.43;9.70;;;-2.80;98.80;;;;;;5096531;28;20208;-90
2022/03/05 07:06:15;;;;;;;13.88;8.27;;;-2.70;98.80;;;;;;5097106;28;20226;-89
2022/03/05 07:08:42;;;;;;;11.13;7.60;;;-2.50;98.90;;;;;;5096474;28;20231;-89
2022/03/05 07:11:09;;;;;;;14.02;9.35;;;-2.00;99.40;;;;;;5096311;28;20211;-90
2022/03/05 07:13:37;;;;;;;12.20;8.07;;;-1.20;98.80;;;;;;5096249;28;20212;-89
2022/03/05 07:16:04;;;;;;;12.35;8.13;;;-0.20;97.10;;;;;;5096548;28;20589;-90
2022/03/05 07:18:31;;;;;;;13.20;8.20;;;0.80;95.60;;;;;;5096251;28;20585;-91
2022/03/05 07:20:58;;;;;;;14.88;9.10;;;1.80;93.90;;;;;;5096227;28;20204;-91
2022/03/05 07:23:25;;;;;;;12.63;8.88;;;2.60;92.80;;;;;;5095983;28;20253;-90
2022/03/05 07:25:51;;;;;;;13.73;9.40;;;3.40;91.50;;;;;;5096143;28;20220;-91
2022/03/05 07:28:18;;;;;;;18.70;11.02;;;4.00;90.60;;;;;;5095462;28;20222;-89
2022/03/05 07:30:46;;;;;;;15.88;10.65;;;4.60;89.70;;;;;;5096563;28;20203;-90
2022/03/05 07:33:13;;;;;;;18.52;10.63;;;5.40;86.90;;;;;;5097759;28;20200;-90
2022/03/05 07:35:40;;;;;;;15.45;11.48;;;6.10;85.40;;;;;;5099287;28;20700;-91
2022/03/05 07:38:07;;;;;;;15.63;10.57;;;6.80;83.60;;;;;;5099139;28;20203;-91
2022/03/05 07:40:34;;;;;;;16.63;11.38;;;7.50;82.00;;;;;;5106191;28;20283;-91
2022/03/05 07:43:01;;;;;;;16.98;12.30;;;8.00;80.60;;;;;;5097542;28;20278;-92
2022/03/05 07:45:27;;;;;;;15.05;10.25;;;8.50;79.60;;;;;;5098921;28;20572;-91
2022/03/05 07:47:58;;;;;;;15.45;10.50;;;8.60;78.30;;;;;;5100198;28;20216;-91
2022/03/05 07:50:28;;;;;;;17.83;11.05;;;8.50;77.80;;;;;;5101631;28;20206;-90
2022/03/05 07:52:58;;;;;;;14.93;11.13;;;8.50;77.30;;;;;;5097377;28;20675;-91
2022/03/05 07:55:25;;;;;;;13.75;10.55;;;8.10;77.20;;;;;;5098322;28;20234;-91
2022/03/05 07:57:52;;;;;;;16.67;10.65;;;7.60;78.70;;;;;;5102614;28;20668;-90
2022/03/05 08:00:19;;;;;;;15.13;10.25;;;7.40;78.10;;;;;;5087913;28;20200;-93
2022/03/05 08:02:46;;;;;;;15.30;10.65;;;7.00;79.70;;;;;;5103514;28;20204;-90
2022/03/05 08:05:14;;;;;;;15.43;11.60;;;7.30;79.60;;;;;;5100560;28;20286;-92
2022/03/05 08:07:41;;;;;;;13.73;11.05;;;7.40;78.00;;;;;;5112197;28;20205;-94
2022/03/05 08:10:09;;;;;;;13.45;10.70;;;7.60;79.40;;;;;;5117896;28;20190;-93
2022/03/05 08:12:36;;;;;;;16.83;10.85;;;8.50;78.10;;;;;;5103777;28;20202;-92
2022/03/05 08:20:40;;;;;;;14.30;10.50;;;9.70;75.30;;;;;;5104289;28;20279;-91
2022/03/05 08:23:17;;;;;;;14.68;11.27;;;10.20;72.00;;;;;;5109550;28;20268;-92
2022/03/05 08:25:44;;;;;;;14.07;11.37;;;9.60;74.10;;;;;;5106840;28;20504;-91
2022/03/05 08:28:11;;;;;;;13.98;11.65;;;9.80;73.20;;;;;;5099758;28;21067;-92
2022/03/05 08:30:40;;;;;;;17.50;11.35;;;9.50;75.20;;;;;;5097273;28;20208;-91
2022/03/05 08:33:06;;;;;;;18.08;11.68;;;10.00;73.10;;;;;;5097216;28;20204;-91
2022/03/05 08:35:34;;;;;;;12.32;9.95;;;10.30;72.20;;;;;;5097918;28;20239;-94
2022/03/05 08:38:02;;;;;;;13.98;10.70;;;10.80;71.70;;;;;;5102856;28;20199;-92
2022/03/05 08:40:28;;;;;;;16.35;12.23;;;10.80;70.70;;;;;;5100408;28;20207;-91
2022/03/05 08:42:55;;;;;;;16.58;11.13;;;10.40;70.40;;;;;;5097792;28;20208;-90
2022/03/05 08:45:22;;;;;;;15.60;12.95;;;10.50;70.80;;;;;;5098700;28;20228;-95
2022/03/05 08:47:49;;;;;;;15.13;11.45;;;11.20;70.50;;;;;;5104825;28;20196;-95
2022/03/05 08:50:15;;;;;;;17.65;13.77;;;11.60;69.60;;;;;;5111959;28;20271;-95
2022/03/05 08:52:42;;;;;;;14.13;11.45;;;11.80;68.70;;;;;;5106347;28;20204;-93
2022/03/05 08:55:13;;;;;;;15.43;11.70;;;11.90;68.90;;;;;;5109338;28;20236;-94
2022/03/05 08:57:40;;;;;;;15.73;10.95;;;12.30;68.10;;;;;;5118136;28;20198;-95
2022/03/05 09:00:10;;;;;;;18.55;13.95;;;12.70;67.10;;;;;;5118609;28;20247;-95
2022/03/05 09:02:37;;;;;;;15.00;11.40;;;13.10;66.30;;;;;;5118535;28;20176;-94
2022/03/05 09:05:07;;;;;;;14.10;11.83;;;13.10;66.10;;;;;;5117756;28;20562;-94
2022/03/05 09:07:34;;;;;;;15.30;12.47;;;12.70;65.60;;;;;;5117533;28;20421;-95
2022/03/05 09:10:01;;;;;;;15.63;11.80;;;12.80;65.90;;;;;;5117126;28;20521;-94
2022/03/05 09:12:29;;;;;;;14.13;10.80;;;13.10;64.90;;;;;;5116238;28;20456;-95
2022/03/05 09:14:56;;;;;;;13.80;10.60;;;13.10;66.00;;;;;;5117297;28;20442;-94
2022/03/05 09:17:23;;;;;;;12.93;10.70;;;13.60;65.40;;;;;;5116671;28;20183;-95
2022/03/05 09:19:50;;;;;;;14.40;11.17;;;14.20;63.70;;;;;;5118033;28;20449;-94
2022/03/05 09:22:18;;;;;;;13.00;10.73;;;14.70;62.90;;;;;;5117597;28;20473;-95
2022/03/05 09:24:45;;;;;;;16.47;11.60;;;15.40;62.40;;;;;;5117444;28;20493;-95
2022/03/05 09:27:12;;;;;;;12.83;10.80;;;15.20;60.10;;;;;;5117716;28;20479;-94
2022/03/05 09:29:41;;;;;;;15.33;11.60;;;15.20;60.90;;;;;;5117340;28;20508;-93
2022/03/05 09:32:08;;;;;;;16.10;10.47;;;15.10;61.60;;;;;;5117151;28;20444;-93
2022/03/05 09:34:35;;;;;;;12.80;10.20;;;15.30;61.60;;;;;;5117149;28;20441;-95
2022/03/05 09:37:02;;;;;;;12.37;9.90;;;16.20;59.60;;;;;;5117622;28;20468;-96
2022/03/05 09:39:29;;;;;;;11.90;9.13;;;16.90;58.80;;;;;;5117750;28;20457;-94
2022/03/05 09:41:56;;;;;;;13.63;10.70;;;17.40;57.50;;;;;;5108511;22;20527;-78
2022/03/05 09:44:23;;;;;;;11.43;10.23;;;17.30;58.20;;;;;;5033805;28;20483;-79
2022/03/05 09:46:51;;;;;;;14.10;9.67;;;17.60;58.50;;;;;;5042459;28;20461;-79
2022/03/05 09:49:18;;;;;;;12.30;10.40;;;17.80;57.00;;;;;;5036872;28;20850;-79
2022/03/05 09:51:45;;;;;;;15.40;11.27;;;17.60;57.10;;;;;;5005234;28;21077;-77
2022/03/05 09:54:12;;;;;;;12.00;10.27;;;17.40;57.20;;;;;;5004014;28;20573;-80
2022/03/05 09:56:38;;;;;;;11.23;9.60;;;18.10;57.90;;;;;;5006143;28;20468;-78
2022/03/05 09:59:07;;;;;;;13.05;11.48;;;18.40;56.50;;;;;;5006478;28;20920;-78
2022/03/05 10:01:36;;;;;;;10.73;9.53;;;18.40;56.80;;;;;;5002942;28;20651;-78
2022/03/05 10:04:05;;;;;;;13.83;10.90;;;18.40;55.20;;;;;;5010636;28;20487;-78
2022/03/05 10:06:31;;;;;;;11.50;10.17;;;18.10;54.10;;;;;;5006205;28;20450;-77
2022/03/05 10:08:58;;;;;;;11.60;9.50;;;17.30;55.30;;;;;;5047393;28;20461;-77
2022/03/05 10:11:37;;;;;;;11.00;9.00;;;17.20;57.00;;;;;;5101623;28;20496;-77
2022/03/05 10:14:15;;;;;;;11.63;8.67;;;17.20;55.10;;;;;;5111336;28;20472;-78
2022/03/05 10:16:42;;;;;;;12.47;9.70;;;17.00;55.20;;;;;;5109152;28;20488;-78
2022/03/05 10:19:21;;;;;;;10.80;9.00;;;16.60;55.70;;;;;;5112502;28;20850;-78
2022/03/05 10:21:59;;;;;;;11.53;10.27;;;17.10;55.50;;;;;;5111206;28;20460;-77
2022/03/05 10:24:33;;;;;;;10.23;9.10;;;17.70;54.80;;;;;;5110718;28;20487;-76
2022/03/05 10:27:00;;;;;;;10.60;9.20;;;18.20;55.60;;;;;;5111035;28;20462;-79
2022/03/05 10:29:29;;;;;;;9.23;8.23;;;18.60;55.40;;;;;;5112625;28;20963;-77
2022/03/05 10:31:58;;;;;;;11.73;9.23;;;18.60;53.50;;;;;;5112666;28;20507;-77
2022/03/05 10:34:26;;;;;;;11.90;10.00;;;18.40;54.10;;;;;;5113985;28;20480;-77
2022/03/05 10:37:00;;;;;;;12.70;9.20;;;17.60;53.50;;;;;;5115094;28;20812;-78
2022/03/05 10:39:29;;;;;;;10.70;8.10;;;17.20;55.70;;;;;;5115489;28;20479;-78
2022/03/05 10:41:56;;;;;;;11.50;8.87;;;17.10;52.90;;;;;;5116071;28;20480;-77
2022/03/05 10:44:24;;;;;;;9.13;8.23;;;17.10;53.70;;;;;;5114788;28;20850;-78
2022/03/05 10:46:56;;;;;;;9.30;7.57;;;16.70;53.90;;;;;;5115843;28;20788;-78
2022/03/05 10:49:26;;;;;;;9.90;8.70;;;16.40;52.90;;;;;;5115520;28;20452;-77
2022/03/05 10:52:04;;;;;;;10.00;7.87;;;16.70;53.70;;;;;;5114584;28;20475;-77
2022/03/05 10:54:34;;;;;;;10.60;8.33;;;17.10;53.30;;;;;;5113424;28;20516;-76
2022/03/05 10:57:09;;;;;;;8.60;7.80;;;17.40;53.60;;;;;;5113208;28;20467;-76
2022/03/05 10:59:38;;;;;;;9.13;8.23;;;17.80;52.60;;;;;;5116888;28;21014;-77
2022/03/05 11:02:05;;;;;;;8.80;7.20;;;18.20;52.60;;;;;;5116372;28;20457;-77
2022/03/05 11:04:35;;;;;;;10.13;6.67;;;18.50;52.30;;;;;;5113607;28;20488;-76
2022/03/05 11:07:02;;;;;;;8.27;7.37;;;18.00;50.60;;;;;;5112433;28;20811;-76
2022/03/05 11:09:31;;;;;;;8.17;6.30;;;17.50;51.20;;;;;;5113289;28;20460;-77
2022/03/05 11:11:59;;;;;;;10.43;7.27;;;17.40;51.10;;;;;;5112971;28;20944;-77
2022/03/05 11:14:26;;;;;;;9.80;7.53;;;17.10;50.10;;;;;;5113091;28;20987;-76
2022/03/05 11:16:53;;;;;;;7.97;6.67;;;16.90;52.50;;;;;;5112692;28;20464;-77
2022/03/05 11:19:22;;;;;;;11.20;8.17;;;17.10;50.70;;;;;;5113041;28;20487;-76
2022/03/05 11:21:50;;;;;;;9.30;7.10;;;15.90;50.60;;;;;;5113009;28;20460;-75
2022/03/05 11:24:19;;;;;;;9.13;6.77;;;15.70;53.10;;;;;;5112840;28;20477;-76
2022/03/05 11:26:48;;;;;;;9.93;7.60;;;15.50;51.80;;;;;;5112485;28;20892;-76
2022/03/05 11:29:17;;;;;;;13.27;10.70;;;15.30;52.60;;;;;;5111759;28;20480;-77
2022/03/05 11:31:44;;;;;;;11.10;8.70;;;16.00;52.60;;;;;;5113002;28;20468;-77
2022/03/05 11:34:17;;;;;;;7.20;6.13;;;17.00;53.30;;;;;;5089042;22;20843;-92
2022/03/05 11:36:44;;;;;;;8.10;6.30;;;17.60;49.90;;;;;;5004303;28;20966;-93
2022/03/05 11:39:18;;;;;;;7.60;6.70;;;16.80;49.60;;;;;;5015136;28;20469;-94
2022/03/05 11:42:02;;;;;;;8.67;6.33;;;16.30;51.80;;;;;;5016906;28;20454;-94
2022/03/05 11:44:38;;;;;;;7.00;6.30;;;17.00;52.00;;;;;;5012744;28;20482;-94
2022/03/05 11:47:29;;;;;;;6.60;5.63;;;18.00;49.40;;;;;;5025083;28;20609;-92
2022/03/05 11:50:17;;;;;;;7.73;6.53;;;17.20;50.30;;;;;;5035667;27;20445;-96
2022/03/05 11:53:07;;;;;;;8.90;7.00;;;17.30;51.40;;;;;;5035735;27;20445;-95
2022/03/05 11:55:41;;;;;;;7.77;6.50;;;17.80;50.60;;;;;;5029608;27;20488;-94
2022/03/05 11:58:39;;;;;;;7.73;7.00;;;17.40;50.50;;;;;;5016607;28;20435;-93
2022/03/05 12:01:34;;;;;;;7.00;6.30;;;17.70;50.80;;;;;;5017161;28;20419;-90
2022/03/05 12:04:05;;;;;;;6.73;5.70;;;18.80;50.00;;;;;;5017474;28;20475;-92
2022/03/05 12:06:43;;;;;;;7.10;6.30;;;18.80;47.80;;;;;;5017492;28;20488;-92
2022/03/05 12:09:36;;;;;;;7.20;5.97;;;17.50;49.30;;;;;;5017151;28;20450;-93
2022/03/05 12:12:05;;;;;;;8.07;6.37;;;17.50;49.60;;;;;;5006341;28;20461;-91
2022/03/05 12:15:09;;;;;;;8.63;7.50;;;17.30;50.10;;;;;;5001141;28;20474;-92
2022/03/05 12:17:39;;;;;;;7.60;6.83;;;17.80;50.10;;;;;;4993014;28;20470;-90
2022/03/05 12:20:07;;;;;;;7.10;6.40;;;18.50;49.70;;;;;;4993939;28;20494;-90
2022/03/05 12:22:33;;;;;;;7.40;6.37;;;18.40;47.80;;;;;;4993282;28;20469;-90
2022/03/05 12:25:02;;;;;;;9.73;6.50;;;17.70;49.70;;;;;;4994015;28;20501;-89
2022/03/05 12:27:30;;;;;;;8.37;6.97;;;18.00;49.80;;;;;;4999907;28;20476;-90
2022/03/05 12:29:57;;;;;;;7.50;6.80;;;17.80;48.70;;;;;;4994587;28;20466;-92
2022/03/05 12:32:30;;;;;;;8.00;7.00;;;16.40;49.80;;;;;;4993858;28;20498;-92
2022/03/05 12:35:03;;;;;;;7.23;6.40;;;15.50;50.40;;;;;;4993424;28;20921;-92
2022/03/05 12:37:31;;;;;;;8.13;7.33;;;15.30;51.60;;;;;;4992650;28;20492;-92
2022/03/05 12:39:59;;;;;;;8.40;7.50;;;15.40;51.20;;;;;;4992377;28;20478;-92
2022/03/05 12:42:35;;;;;;;8.07;7.13;;;14.50;51.60;;;;;;4992990;28;20963;-92
2022/03/05 12:45:02;;;;;;;8.87;6.90;;;14.60;53.20;;;;;;4992872;28;20500;-92
2022/03/05 12:47:36;;;;;;;8.37;6.90;;;14.90;52.10;;;;;;4993026;28;20971;-93
2022/03/05 12:50:25;;;;;;;8.03;7.23;;;15.50;51.40;;;;;;4993749;28;20928;-92
2022/03/05 12:53:00;;;;;;;9.87;7.43;;;16.50;51.30;;;;;;4993577;28;20470;-93